createdAt,value
2023-01-17T00:02:18.940Z,3.08
2023-01-17T00:05:05.189Z,2.78
2023-01-17T00:07:51.581Z,2.45
2023-01-17T00:10:20.281Z,2.15
2023-01-17T00:12:52.304Z,2.47
2023-01-17T00:15:20.204Z,2.47
2023-01-17T00:17:48.633Z,2.53
2023-01-17T00:20:35.620Z,1.90
2023-01-17T00:23:25.058Z,1.60
2023-01-17T00:26:04.625Z,1.70
2023-01-17T00:28:38.820Z,1.70
2023-01-17T00:31:07.122Z,2.22
2023-01-17T00:33:34.853Z,2.45
2023-01-17T00:36:02.587Z,2.33
2023-01-17T00:38:31.074Z,1.35
2023-01-17T00:41:05.794Z,1.98
2023-01-17T00:43:51.598Z,1.83
2023-01-17T00:46:37.885Z,2.03
2023-01-17T00:49:23.843Z,2.67
2023-01-17T00:52:09.830Z,2.45
2023-01-17T00:54:55.766Z,1.85
2023-01-17T00:57:41.727Z,2.00
2023-01-17T01:00:28.156Z,2.85
2023-01-17T01:03:14.060Z,1.60
2023-01-17T01:05:59.750Z,2.33
2023-01-17T01:08:47.446Z,2.63
2023-01-17T01:11:34.973Z,2.47
2023-01-17T01:14:21.571Z,2.20
2023-01-17T01:17:07.713Z,2.65
2023-01-17T01:19:53.641Z,1.83
2023-01-17T01:22:39.278Z,2.22
2023-01-17T01:25:25.182Z,2.65
2023-01-17T01:28:10.999Z,2.53
2023-01-17T01:30:56.904Z,2.20
2023-01-17T01:33:24.133Z,2.58
2023-01-17T01:35:53.697Z,1.88
2023-01-17T01:38:22.209Z,1.98
2023-01-17T01:40:51.191Z,2.27
2023-01-17T01:43:22.901Z,2.40
2023-01-17T01:45:54.950Z,2.33
2023-01-17T01:48:37.116Z,2.40
2023-01-17T01:51:05.997Z,2.05
2023-01-17T01:53:36.342Z,1.80
2023-01-17T01:56:04.731Z,2.20
2023-01-17T01:58:34.598Z,2.45
2023-01-17T02:01:02.035Z,2.42
2023-01-17T02:03:32.220Z,1.88
2023-01-17T02:06:03.128Z,2.47
2023-01-17T02:08:30.360Z,2.58
2023-01-17T02:10:57.661Z,1.77
2023-01-17T02:13:24.982Z,2.35
2023-01-17T02:16:14.741Z,3.90
2023-01-17T02:19:05.649Z,2.60
2023-01-17T02:21:37.851Z,2.22
2023-01-17T02:24:16.722Z,2.72
2023-01-17T02:26:50.181Z,2.38
2023-01-17T02:29:20.481Z,2.63
2023-01-17T02:31:55.623Z,2.45
2023-01-17T02:34:29.286Z,3.28
2023-01-17T02:37:01.315Z,2.92
2023-01-17T02:39:30.804Z,2.45
2023-01-17T02:42:01.586Z,2.22
2023-01-17T02:44:28.889Z,2.33
2023-01-17T02:46:57.434Z,2.55
2023-01-17T02:49:28.659Z,2.10
2023-01-17T02:52:01.458Z,2.20
2023-01-17T02:54:48.006Z,2.65
2023-01-17T02:57:32.066Z,2.33
2023-01-17T03:00:06.338Z,2.42
2023-01-17T03:02:33.744Z,2.13
2023-01-17T03:05:06.318Z,2.83
2023-01-17T03:07:33.887Z,3.10
2023-01-17T03:10:03.513Z,2.97
2023-01-17T03:12:31.660Z,3.22
2023-01-17T03:14:58.868Z,2.55
2023-01-17T03:17:29.135Z,2.50
2023-01-17T03:19:56.466Z,2.85
2023-01-17T03:22:23.733Z,2.60
2023-01-17T03:24:51.349Z,2.72
2023-01-17T03:27:19.744Z,3.00
2023-01-17T03:29:47.055Z,2.90
2023-01-17T03:32:14.310Z,1.95
2023-01-17T03:34:41.566Z,2.47
2023-01-17T03:37:08.836Z,3.15
2023-01-17T03:39:36.060Z,2.90
2023-01-17T03:42:03.306Z,2.30
2023-01-17T03:44:31.011Z,3.38
2023-01-17T03:46:58.244Z,2.72
2023-01-17T03:49:25.422Z,3.08
2023-01-17T03:51:52.689Z,2.65
2023-01-17T03:54:19.903Z,1.95
2023-01-17T03:56:47.222Z,1.75
2023-01-17T03:59:14.489Z,2.33
2023-01-17T04:01:41.812Z,2.13
2023-01-17T04:04:09.108Z,2.10
2023-01-17T04:06:36.338Z,2.03
2023-01-17T04:09:03.689Z,2.80
2023-01-17T04:11:30.937Z,3.47
2023-01-17T04:13:58.206Z,3.55
2023-01-17T04:16:28.932Z,2.63
2023-01-17T04:18:56.410Z,2.83
2023-01-17T04:21:23.709Z,3.10
2023-01-17T04:23:51.031Z,2.57
2023-01-17T04:26:18.316Z,2.05
2023-01-17T04:28:45.551Z,2.28
2023-01-17T04:31:15.089Z,1.98
2023-01-17T04:33:42.480Z,1.30
2023-01-17T04:36:09.813Z,2.80
2023-01-17T04:38:37.086Z,2.25
2023-01-17T04:41:04.347Z,3.63
2023-01-17T04:43:31.635Z,2.25
2023-01-17T04:45:59.310Z,3.10
2023-01-17T04:48:27.269Z,2.93
2023-01-17T04:51:05.328Z,2.05
2023-01-17T04:53:32.918Z,2.00
2023-01-17T04:56:00.245Z,2.03
2023-01-17T04:58:27.739Z,1.55
2023-01-17T05:00:55.087Z,2.67
2023-01-17T05:03:23.131Z,3.00
2023-01-17T05:05:50.510Z,2.58
2023-01-17T05:08:17.750Z,2.10
2023-01-17T05:10:46.972Z,2.95
2023-01-17T05:13:14.729Z,2.60
2023-01-17T05:15:42.093Z,2.28
2023-01-17T05:18:12.564Z,2.10
2023-01-17T05:20:39.847Z,2.42
2023-01-17T05:23:07.120Z,1.88
2023-01-17T05:25:34.335Z,2.93
2023-01-17T05:28:01.578Z,2.55
2023-01-17T05:30:29.650Z,2.60
2023-01-17T05:32:57.334Z,2.53
2023-01-17T05:35:25.915Z,2.85
2023-01-17T05:37:53.327Z,2.67
2023-01-17T05:40:21.667Z,1.88
2023-01-17T05:42:49.619Z,2.33
2023-01-17T05:45:17.240Z,2.85
2023-01-17T05:47:45.172Z,2.47
2023-01-17T05:50:12.962Z,2.23
2023-01-17T05:52:40.297Z,2.78
2023-01-17T05:55:08.140Z,2.78
2023-01-17T05:57:35.393Z,3.10
2023-01-17T06:00:02.753Z,2.92
2023-01-17T06:02:32.125Z,5.90
2023-01-17T06:05:01.304Z,6.78
2023-01-17T06:07:29.798Z,8.10
2023-01-17T06:09:57.048Z,5.53
2023-01-17T06:12:24.246Z,3.72
2023-01-17T06:14:51.487Z,3.20
2023-01-17T06:17:18.804Z,8.98
2023-01-17T06:19:46.012Z,3.95
2023-01-17T06:22:13.366Z,8.35
2023-01-17T06:24:40.631Z,4.95
2023-01-17T06:27:10.098Z,2.70
2023-01-17T06:29:37.849Z,5.13
2023-01-17T06:32:05.234Z,3.33
2023-01-17T06:34:32.554Z,4.38
2023-01-17T06:36:59.801Z,4.25
2023-01-17T06:39:26.996Z,3.90
2023-01-17T06:41:54.681Z,4.20
2023-01-17T06:44:21.971Z,3.45
2023-01-17T06:46:49.327Z,4.00
2023-01-17T06:49:16.900Z,2.47
2023-01-17T06:51:44.142Z,3.37
2023-01-17T06:54:11.545Z,3.95
2023-01-17T06:56:38.864Z,3.75
2023-01-17T06:59:06.081Z,3.53
2023-01-17T07:01:33.425Z,3.85
2023-01-17T07:04:00.988Z,3.40
2023-01-17T07:06:28.656Z,3.15
2023-01-17T07:08:56.449Z,2.83
2023-01-17T07:11:23.890Z,3.15
2023-01-17T07:13:51.187Z,3.28
2023-01-17T07:16:18.494Z,3.60
2023-01-17T07:18:45.788Z,3.58
2023-01-17T07:21:16.287Z,3.60
2023-01-17T07:23:43.537Z,3.95
2023-01-17T07:26:10.897Z,3.72
2023-01-17T07:28:38.114Z,3.40
2023-01-17T07:31:07.346Z,2.95
2023-01-17T07:33:34.845Z,3.25
2023-01-17T07:36:09.306Z,3.53
2023-01-17T07:38:36.645Z,3.50
2023-01-17T07:41:04.223Z,3.17
2023-01-17T07:43:31.604Z,3.40
2023-01-17T07:46:02.002Z,3.67
2023-01-17T07:48:29.527Z,3.53
2023-01-17T07:50:57.697Z,3.20
2023-01-17T07:53:26.297Z,3.13
2023-01-17T07:55:54.037Z,5.70
2023-01-17T07:58:21.790Z,3.42
2023-01-17T08:00:49.199Z,3.72
2023-01-17T08:03:17.394Z,2.20
2023-01-17T08:05:45.675Z,3.17
2023-01-17T08:08:12.971Z,3.20
2023-01-17T08:10:40.255Z,2.65
2023-01-17T08:13:07.532Z,3.40
2023-01-17T08:15:34.820Z,2.95
2023-01-17T08:18:02.288Z,2.50
2023-01-17T08:20:29.594Z,3.05
2023-01-17T08:22:57.236Z,3.00
2023-01-17T08:25:25.087Z,3.08
2023-01-17T08:27:52.735Z,3.13
2023-01-17T08:30:20.010Z,3.47
2023-01-17T08:32:47.293Z,2.53
2023-01-17T08:35:14.552Z,3.17
2023-01-17T08:37:41.838Z,3.22
2023-01-17T08:40:10.635Z,3.03
2023-01-17T08:42:40.144Z,3.17
2023-01-17T08:45:08.463Z,2.08
2023-01-17T08:47:36.003Z,2.40
2023-01-17T08:50:03.531Z,3.13
2023-01-17T08:52:30.810Z,3.15
2023-01-17T08:54:58.095Z,4.35
2023-01-17T08:57:25.461Z,3.03
2023-01-17T08:59:52.742Z,3.92
2023-01-17T09:02:20.465Z,3.45
2023-01-17T09:04:48.526Z,3.38
2023-01-17T09:07:17.530Z,2.50
2023-01-17T09:09:44.971Z,2.78
2023-01-17T09:12:12.693Z,3.78
2023-01-17T09:14:40.184Z,3.97
2023-01-17T09:17:07.508Z,4.22
2023-01-17T09:19:35.577Z,4.25
2023-01-17T09:22:03.069Z,3.20
2023-01-17T09:24:31.135Z,3.67
2023-01-17T09:26:58.464Z,3.25
2023-01-17T09:29:25.693Z,2.10
2023-01-17T09:31:53.011Z,2.90
2023-01-17T09:34:20.290Z,3.03
2023-01-17T09:36:47.600Z,2.08
2023-01-17T09:39:15.356Z,1.88
2023-01-17T09:42:01.454Z,1.73
2023-01-17T09:44:30.758Z,1.75
2023-01-17T09:47:00.862Z,1.90
2023-01-17T09:49:41.831Z,2.50
2023-01-17T09:52:10.870Z,1.95
2023-01-17T09:54:42.959Z,2.40
2023-01-17T09:57:25.685Z,2.13
2023-01-17T10:00:04.351Z,1.80
2023-01-17T10:02:53.029Z,1.60
2023-01-17T10:05:26.288Z,2.00
2023-01-17T10:08:12.322Z,1.90
2023-01-17T10:10:44.084Z,2.47
2023-01-17T10:13:11.333Z,1.73
2023-01-17T10:15:50.384Z,2.40
2023-01-17T10:18:29.574Z,2.50
2023-01-17T10:21:11.117Z,2.58
2023-01-17T10:24:03.666Z,2.78
2023-01-17T10:26:31.118Z,1.93
2023-01-17T10:29:03.355Z,2.80
2023-01-17T10:31:32.374Z,2.28
2023-01-17T10:34:07.540Z,3.45
2023-01-17T10:36:37.959Z,6.25
2023-01-17T10:39:14.543Z,3.33
2023-01-17T10:41:44.380Z,3.28
2023-01-17T10:44:23.731Z,3.90
2023-01-17T10:47:00.112Z,2.75
2023-01-17T10:49:28.270Z,3.25
2023-01-17T10:52:00.340Z,3.30
2023-01-17T10:54:45.791Z,4.20
2023-01-17T10:57:18.377Z,2.70
2023-01-17T10:59:45.703Z,2.83
2023-01-17T11:02:19.895Z,5.32
2023-01-17T11:04:49.059Z,3.20
2023-01-17T11:07:20.848Z,3.22
2023-01-17T11:09:49.850Z,3.95
2023-01-17T11:12:36.223Z,3.15
2023-01-17T11:15:05.827Z,3.10
2023-01-17T11:17:33.828Z,2.90
2023-01-17T11:20:10.548Z,3.00
2023-01-17T11:22:38.018Z,3.83
2023-01-17T11:25:05.677Z,3.20
2023-01-17T11:27:34.577Z,5.05
2023-01-17T11:30:04.823Z,4.00
2023-01-17T11:32:33.377Z,4.55
2023-01-17T11:35:17.628Z,5.32
2023-01-17T11:37:48.937Z,3.08
2023-01-17T11:40:16.183Z,5.13
2023-01-17T11:42:43.538Z,6.07
2023-01-17T11:45:24.803Z,6.18
2023-01-17T11:48:05.605Z,4.47
2023-01-17T11:50:32.989Z,3.80
2023-01-17T11:53:26.644Z,5.88
2023-01-17T11:55:58.857Z,4.77
2023-01-17T11:58:27.335Z,2.90
2023-01-17T12:01:14.847Z,4.30
2023-01-17T12:03:48.322Z,5.90
2023-01-17T12:06:39.879Z,4.80
2023-01-17T12:09:23.232Z,4.97
2023-01-17T12:12:12.252Z,3.75
2023-01-17T12:14:57.829Z,2.95
2023-01-17T12:17:46.382Z,5.22
2023-01-17T12:20:28.474Z,2.42
2023-01-17T12:23:16.177Z,4.70
2023-01-17T12:25:55.229Z,5.63
2023-01-17T12:28:41.054Z,2.38
2023-01-17T12:31:30.551Z,3.47
2023-01-17T12:34:18.077Z,2.40
2023-01-17T12:36:46.227Z,4.57
2023-01-17T12:39:17.042Z,3.03
2023-01-17T12:41:47.316Z,2.38
2023-01-17T12:44:16.871Z,2.15
2023-01-17T12:46:49.005Z,2.40
2023-01-17T12:49:16.387Z,2.10
2023-01-17T12:51:47.296Z,2.30
2023-01-17T12:54:33.384Z,2.40
2023-01-17T12:57:16.454Z,2.88
2023-01-17T12:59:51.866Z,2.05
2023-01-17T13:02:34.573Z,2.63
2023-01-17T13:05:23.788Z,2.00
2023-01-17T13:07:57.225Z,2.53
2023-01-17T13:10:35.371Z,2.28
2023-01-17T13:13:24.099Z,2.38
2023-01-17T13:15:54.209Z,2.63
2023-01-17T13:18:25.925Z,3.00
2023-01-17T13:20:53.947Z,2.13
2023-01-17T13:23:23.914Z,2.92
2023-01-17T13:25:51.398Z,2.63
2023-01-17T13:28:31.056Z,2.10
2023-01-17T13:31:16.972Z,2.80
2023-01-17T13:33:56.538Z,2.50
2023-01-17T13:36:40.786Z,2.67
2023-01-17T13:39:27.028Z,3.03
2023-01-17T13:41:58.604Z,2.87
2023-01-17T13:44:30.039Z,2.83
2023-01-17T13:47:01.045Z,2.15
2023-01-17T13:49:34.478Z,2.40
2023-01-17T13:52:03.477Z,2.45
2023-01-17T13:54:34.212Z,2.73
2023-01-17T13:57:20.339Z,2.58
2023-01-17T13:59:47.656Z,2.63
2023-01-17T14:02:33.501Z,2.55
2023-01-17T14:05:11.186Z,2.30
2023-01-17T14:07:50.037Z,2.40
2023-01-17T14:10:31.123Z,3.15
2023-01-17T14:12:58.972Z,2.75
2023-01-17T14:15:27.465Z,3.30
2023-01-17T14:17:56.515Z,2.50
2023-01-17T14:20:27.403Z,2.47
2023-01-17T14:23:03.072Z,1.88
2023-01-17T14:25:31.525Z,2.20
2023-01-17T14:28:17.643Z,2.38
2023-01-17T14:30:45.086Z,2.15
2023-01-17T14:33:19.297Z,2.57
2023-01-17T14:35:51.879Z,2.45
2023-01-17T14:38:25.213Z,1.95
2023-01-17T14:40:54.252Z,1.85
2023-01-17T14:43:22.733Z,2.60
2023-01-17T14:45:50.283Z,2.40
2023-01-17T14:48:22.114Z,2.40
2023-01-17T14:50:50.671Z,2.15
2023-01-17T14:53:20.155Z,1.70
2023-01-17T14:55:51.408Z,1.60
2023-01-17T14:58:23.624Z,2.10
2023-01-17T15:00:52.408Z,2.55
2023-01-17T15:03:19.852Z,2.35
2023-01-17T15:05:49.412Z,2.90
2023-01-17T15:08:18.781Z,2.10
2023-01-17T15:10:54.983Z,2.60
2023-01-17T15:13:44.749Z,1.90
2023-01-17T15:16:20.083Z,2.88
2023-01-17T15:18:47.518Z,3.63
2023-01-17T15:21:19.518Z,2.85
2023-01-17T15:23:52.093Z,3.13
2023-01-17T15:26:21.449Z,3.47
2023-01-17T15:28:49.393Z,5.55
2023-01-17T15:31:46.233Z,4.68
2023-01-17T15:34:18.101Z,3.88
2023-01-17T15:36:48.602Z,8.45
2023-01-17T15:39:19.335Z,6.72
2023-01-17T15:41:48.130Z,5.03
2023-01-17T15:44:24.626Z,7.18
2023-01-17T15:46:51.975Z,4.65
2023-01-17T15:49:22.927Z,4.63
2023-01-17T15:51:54.578Z,9.88
2023-01-17T15:54:25.522Z,8.13
2023-01-17T15:57:03.070Z,6.35
2023-01-17T15:59:50.614Z,2.97
2023-01-17T16:02:23.897Z,2.40
2023-01-17T16:04:51.363Z,2.60
2023-01-17T16:07:20.311Z,3.95
2023-01-17T16:09:48.208Z,4.57
2023-01-17T16:12:15.545Z,2.88
2023-01-17T16:14:59.510Z,3.10
2023-01-17T16:17:31.779Z,5.20
2023-01-17T16:19:59.381Z,3.28
2023-01-17T16:22:27.217Z,2.55
2023-01-17T16:24:58.901Z,3.00
2023-01-17T16:27:26.186Z,3.42
2023-01-17T16:29:55.669Z,5.15
2023-01-17T16:32:23.604Z,3.72
2023-01-17T16:34:50.864Z,5.45
2023-01-17T16:37:18.170Z,3.97
2023-01-17T16:39:46.367Z,2.88
2023-01-17T16:42:13.634Z,3.40
2023-01-17T16:44:40.930Z,2.30
2023-01-17T16:47:08.205Z,9.68
2023-01-17T16:49:35.558Z,3.28
2023-01-17T16:52:02.789Z,9.90
2023-01-17T16:54:30.179Z,6.03
2023-01-17T16:56:57.445Z,3.47
2023-01-17T16:59:25.290Z,3.55
2023-01-17T17:01:53.034Z,2.65
2023-01-17T17:04:20.367Z,2.78
2023-01-17T17:06:47.647Z,2.53
2023-01-17T17:09:15.021Z,2.80
2023-01-17T17:11:42.902Z,2.72
2023-01-17T17:14:10.367Z,2.30
2023-01-17T17:16:39.006Z,2.40
2023-01-17T17:19:07.717Z,2.70
2023-01-17T17:21:35.471Z,3.88
2023-01-17T17:24:03.243Z,4.38
2023-01-17T17:26:32.088Z,6.13
2023-01-17T17:28:59.291Z,2.80
2023-01-17T17:31:26.919Z,3.50
2023-01-17T17:33:54.235Z,3.13
2023-01-17T17:36:21.542Z,3.40
2023-01-17T17:38:51.654Z,4.00
2023-01-17T17:41:20.322Z,3.60
2023-01-17T17:43:47.793Z,3.45
2023-01-17T17:46:15.374Z,3.20
2023-01-17T17:48:42.619Z,4.72
2023-01-17T17:51:20.976Z,4.70
2023-01-17T17:53:48.275Z,5.72
2023-01-17T17:56:15.594Z,4.70
2023-01-17T17:58:44.832Z,5.38
2023-01-17T18:01:13.646Z,6.32
2023-01-17T18:03:41.284Z,4.45
2023-01-17T18:06:09.919Z,3.05
2023-01-17T18:08:38.058Z,3.75
2023-01-17T18:11:11.254Z,3.55
2023-01-17T18:13:39.007Z,4.40
2023-01-17T18:16:07.548Z,4.90
2023-01-17T18:18:39.071Z,5.25
2023-01-17T18:21:11.257Z,3.88
2023-01-17T18:23:39.507Z,5.28
2023-01-17T18:26:27.295Z,4.90
2023-01-17T18:28:55.182Z,3.95
2023-01-17T18:31:25.145Z,4.82
2023-01-17T18:33:57.819Z,5.22
2023-01-17T18:36:25.472Z,4.75
2023-01-17T18:38:52.955Z,5.03
2023-01-17T18:41:24.538Z,5.30
2023-01-17T18:43:51.983Z,5.63
2023-01-17T18:46:20.402Z,5.00
2023-01-17T18:48:48.116Z,6.10
2023-01-17T18:51:16.260Z,5.68
2023-01-17T18:53:44.890Z,4.88
2023-01-17T18:56:13.604Z,4.95
2023-01-17T18:58:42.623Z,5.20
2023-01-17T19:01:17.698Z,5.70
2023-01-17T19:03:46.259Z,5.90
2023-01-17T19:06:15.552Z,6.03
2023-01-17T19:08:42.995Z,6.35
2023-01-17T19:11:10.894Z,5.75
2023-01-17T19:13:38.777Z,6.15
2023-01-17T19:16:07.683Z,5.20
2023-01-17T19:18:35.103Z,5.47
2023-01-17T19:21:13.237Z,5.40
2023-01-17T19:23:40.819Z,6.57
2023-01-17T19:26:09.092Z,5.45
2023-01-17T19:28:43.673Z,4.57
2023-01-17T19:31:12.845Z,5.43
2023-01-17T19:33:41.080Z,4.97
2023-01-17T19:36:10.484Z,5.43
2023-01-17T19:38:38.121Z,6.13
2023-01-17T19:41:26.658Z,5.65
2023-01-17T19:43:54.886Z,6.18
2023-01-17T19:46:22.853Z,5.25
2023-01-17T19:48:50.059Z,5.25
2023-01-17T19:51:17.417Z,5.70
2023-01-17T19:53:44.970Z,5.60
2023-01-17T19:56:22.905Z,6.00
2023-01-17T19:58:50.227Z,5.93
2023-01-17T20:01:25.240Z,6.80
2023-01-17T20:03:53.037Z,18.25
2023-01-17T20:06:21.403Z,12.95
2023-01-17T20:08:48.795Z,7.77
2023-01-17T20:11:20.488Z,7.82
2023-01-17T20:13:48.380Z,9.57
2023-01-17T20:16:16.968Z,7.63
2023-01-17T20:18:44.277Z,6.15
2023-01-17T20:21:13.683Z,7.50
2023-01-17T20:23:44.966Z,7.03
2023-01-17T20:26:13.114Z,7.03
2023-01-17T20:28:41.156Z,7.78
2023-01-17T20:31:12.740Z,7.57
2023-01-17T20:33:40.936Z,7.30
2023-01-17T20:36:11.136Z,6.93
2023-01-17T20:38:45.145Z,7.45
2023-01-17T20:41:15.232Z,6.60
2023-01-17T20:43:43.468Z,7.20
2023-01-17T20:46:11.162Z,7.03
2023-01-17T20:48:43.624Z,6.53
2023-01-17T20:51:11.639Z,6.53
2023-01-17T20:53:39.843Z,6.68
2023-01-17T20:56:08.805Z,6.70
2023-01-17T20:58:36.342Z,6.70
2023-01-17T21:01:03.756Z,7.38
2023-01-17T21:03:33.673Z,7.00
2023-01-17T21:06:01.811Z,6.47
2023-01-17T21:08:30.151Z,7.03
2023-01-17T21:10:57.616Z,6.60
2023-01-17T21:13:25.193Z,6.72
2023-01-17T21:15:52.736Z,6.60
2023-01-17T21:18:20.669Z,6.90
2023-01-17T21:20:48.132Z,6.53
2023-01-17T21:23:20.034Z,6.03
2023-01-17T21:25:55.689Z,5.93
2023-01-17T21:28:24.006Z,6.10
2023-01-17T21:30:51.503Z,6.75
2023-01-17T21:33:19.330Z,14.75
2023-01-17T21:35:46.843Z,7.32
2023-01-17T21:38:14.852Z,7.05
2023-01-17T21:40:43.357Z,10.30
2023-01-17T21:43:11.041Z,6.72
2023-01-17T21:45:42.134Z,5.32
2023-01-17T21:48:14.649Z,5.70
2023-01-17T21:50:41.964Z,5.88
2023-01-17T21:53:10.175Z,5.63
2023-01-17T21:55:56.641Z,7.32
2023-01-17T21:58:42.481Z,5.75
2023-01-17T22:01:22.515Z,6.23
2023-01-17T22:03:54.638Z,5.80
2023-01-17T22:06:23.027Z,6.53
2023-01-17T22:08:50.331Z,5.65
2023-01-17T22:11:19.416Z,6.30
2023-01-17T22:13:47.193Z,6.07
2023-01-17T22:16:16.102Z,6.68
2023-01-17T22:18:44.554Z,6.13
2023-01-17T22:21:16.689Z,6.28
2023-01-17T22:23:47.999Z,7.00
2023-01-17T22:26:15.679Z,6.53
2023-01-17T22:28:43.211Z,6.88
2023-01-17T22:31:11.428Z,6.15
2023-01-17T22:33:39.720Z,6.63
2023-01-17T22:36:07.546Z,7.22
2023-01-17T22:38:35.231Z,7.23
2023-01-17T22:41:09.486Z,7.53
2023-01-17T22:43:37.928Z,7.35
2023-01-17T22:46:09.603Z,6.90
2023-01-17T22:48:37.802Z,6.57
2023-01-17T22:51:05.734Z,7.40
2023-01-17T22:53:33.013Z,6.28
2023-01-17T22:56:01.390Z,6.72
2023-01-17T22:58:29.041Z,8.65
2023-01-17T23:00:57.537Z,7.60
2023-01-17T23:03:24.909Z,7.30
2023-01-17T23:05:52.349Z,8.07
2023-01-17T23:08:20.115Z,7.57
2023-01-17T23:11:05.995Z,7.47
2023-01-17T23:13:33.269Z,7.78
2023-01-17T23:16:23.829Z,8.90
2023-01-17T23:19:26.652Z,6.85
2023-01-17T23:22:15.749Z,7.55
2023-01-17T23:24:44.133Z,8.30
2023-01-17T23:27:50.047Z,7.90
2023-01-17T23:30:18.716Z,7.93
2023-01-17T23:32:50.307Z,8.18
2023-01-17T23:35:18.134Z,9.40
2023-01-17T23:38:04.029Z,10.38
2023-01-17T23:40:32.226Z,8.07
2023-01-17T23:43:18.175Z,8.03
2023-01-17T23:45:45.620Z,8.85
2023-01-17T23:48:12.974Z,7.93
2023-01-17T23:50:47.132Z,7.50
2023-01-17T23:53:22.399Z,8.93
2023-01-17T23:55:54.023Z,8.13
2023-01-17T23:58:22.313Z,7.55
